createdAt,value
2019-03-01T00:02:28.610Z,66.33
2019-03-01T00:05:40.953Z,66.47
2019-03-01T00:08:19.252Z,66.26
2019-03-01T00:11:12.278Z,65.96
2019-03-01T00:14:20.468Z,65.18
2019-03-01T00:17:33.871Z,64.72
2019-03-01T00:20:31.522Z,64.34
2019-03-01T00:23:41.844Z,64.31
2019-03-01T00:26:24.248Z,63.96
2019-03-01T00:29:36.883Z,63.83
2019-03-01T00:32:30.475Z,63.75
2019-03-01T00:35:54.347Z,64.00
2019-03-01T00:38:50.529Z,63.94
2019-03-01T00:42:01.809Z,63.78
2019-03-01T00:44:41.341Z,63.63
2019-03-01T00:47:08.169Z,63.83
2019-03-01T00:49:34.961Z,63.86
2019-03-01T00:52:01.778Z,63.81
2019-03-01T00:54:28.498Z,63.88
2019-03-01T00:56:55.210Z,63.72
2019-03-01T00:59:21.880Z,63.79
2019-03-01T01:01:48.536Z,63.54
2019-03-01T01:04:15.245Z,63.85
2019-03-01T01:06:41.938Z,63.81
2019-03-01T01:09:08.768Z,63.73
2019-03-01T01:11:35.437Z,63.80
2019-03-01T01:14:02.273Z,64.10
2019-03-01T01:16:29.039Z,64.33
2019-03-01T01:18:55.717Z,64.27
2019-03-01T01:21:22.302Z,64.58
2019-03-01T01:23:48.961Z,64.56
2019-03-01T01:26:15.806Z,64.84
2019-03-01T01:28:42.465Z,64.62
2019-03-01T01:31:09.281Z,64.77
2019-03-01T01:33:35.985Z,64.59
2019-03-01T01:36:02.660Z,64.45
2019-03-01T01:38:29.322Z,64.44
2019-03-01T01:40:55.917Z,64.62
2019-03-01T01:43:22.524Z,64.47
2019-03-01T01:45:49.299Z,64.52
2019-03-01T01:48:16.131Z,64.53
2019-03-01T01:50:42.850Z,64.50
2019-03-01T01:53:09.507Z,64.64
2019-03-01T01:55:36.160Z,64.60
2019-03-01T01:58:02.961Z,65.23
2019-03-01T02:00:29.631Z,64.64
2019-03-01T02:02:56.552Z,64.76
2019-03-01T02:05:23.210Z,64.55
2019-03-01T02:07:49.859Z,64.54
2019-03-01T02:10:16.781Z,64.33
2019-03-01T02:12:43.521Z,64.52
2019-03-01T02:15:12.543Z,64.76
2019-03-01T02:17:39.169Z,64.71
2019-03-01T02:20:07.147Z,64.66
2019-03-01T02:22:33.802Z,64.29
2019-03-01T02:25:00.513Z,64.24
2019-03-01T02:27:28.399Z,64.50
2019-03-01T02:29:55.353Z,64.49
2019-03-01T02:32:42.875Z,65.06
2019-03-01T02:35:11.558Z,64.60
2019-03-01T02:37:38.242Z,64.73
2019-03-01T02:40:06.417Z,65.51
2019-03-01T02:42:33.063Z,65.38
2019-03-01T02:44:59.769Z,66.77
2019-03-01T02:47:26.336Z,67.33
2019-03-01T02:49:53.020Z,67.10
2019-03-01T02:52:19.567Z,68.13
2019-03-01T02:54:46.216Z,69.06
2019-03-01T02:57:12.848Z,68.30
2019-03-01T02:59:39.391Z,69.08
2019-03-01T03:02:06.077Z,69.03
2019-03-01T03:04:32.949Z,68.98
2019-03-01T03:07:17.015Z,68.84
2019-03-01T03:09:43.671Z,69.96
2019-03-01T03:12:10.318Z,69.18
2019-03-01T03:14:37.071Z,69.40
2019-03-01T03:17:03.718Z,69.86
2019-03-01T03:19:30.297Z,68.48
2019-03-01T03:21:56.840Z,68.46
2019-03-01T03:24:23.401Z,68.39
2019-03-01T03:26:50.059Z,68.74
2019-03-01T03:29:16.746Z,68.25
2019-03-01T03:31:43.453Z,68.97
2019-03-01T03:34:10.259Z,69.32
2019-03-01T03:36:36.818Z,70.01
2019-03-01T03:39:05.229Z,70.76
2019-03-01T03:41:31.982Z,71.57
2019-03-01T03:43:58.611Z,72.16
2019-03-01T03:46:25.565Z,71.40
2019-03-01T03:48:52.195Z,72.38
2019-03-01T03:51:18.836Z,71.87
2019-03-01T03:53:45.428Z,72.43
2019-03-01T03:56:12.154Z,72.98
2019-03-01T03:58:38.826Z,72.70
2019-03-01T04:01:05.483Z,72.61
2019-03-01T04:03:32.242Z,72.79
2019-03-01T04:05:59.260Z,72.79
2019-03-01T04:08:26.018Z,73.04
2019-03-01T04:10:52.543Z,72.84
2019-03-01T04:13:19.095Z,73.10
2019-03-01T04:15:45.924Z,72.85
2019-03-01T04:18:12.568Z,73.09
2019-03-01T04:20:39.181Z,73.44
2019-03-01T04:23:05.837Z,74.28
2019-03-01T04:25:32.519Z,75.65
2019-03-01T04:27:59.069Z,75.28
2019-03-01T04:30:25.773Z,76.35
2019-03-01T04:32:53.529Z,76.31
2019-03-01T04:35:20.951Z,77.11
2019-03-01T04:37:47.755Z,76.65
2019-03-01T04:40:14.648Z,76.60
2019-03-01T04:42:41.308Z,76.73
2019-03-01T04:45:09.095Z,76.57
2019-03-01T04:47:35.866Z,76.89
2019-03-01T04:50:03.121Z,76.99
2019-03-01T04:52:34.332Z,76.75
2019-03-01T04:55:01.113Z,76.68
2019-03-01T04:57:27.787Z,76.94
2019-03-01T04:59:54.424Z,77.22
2019-03-01T05:02:21.122Z,76.73
2019-03-01T05:04:47.826Z,76.82
2019-03-01T05:07:14.694Z,77.03
2019-03-01T05:09:41.398Z,77.13
2019-03-01T05:12:08.070Z,77.08
2019-03-01T05:14:34.634Z,77.18
2019-03-01T05:17:01.273Z,77.85
2019-03-01T05:19:27.829Z,78.22
2019-03-01T05:21:54.530Z,77.47
2019-03-01T05:24:21.311Z,77.41
2019-03-01T05:26:47.945Z,77.57
2019-03-01T05:29:14.617Z,77.12
2019-03-01T05:31:41.268Z,76.96
2019-03-01T05:34:07.969Z,77.51
2019-03-01T05:36:34.721Z,77.77
2019-03-01T05:39:01.260Z,78.08
2019-03-01T05:41:27.985Z,78.60
2019-03-01T05:43:54.661Z,78.81
2019-03-01T05:46:21.482Z,78.49
2019-03-01T05:48:48.482Z,78.35
2019-03-01T05:51:15.252Z,78.21
2019-03-01T05:53:41.912Z,79.22
2019-03-01T05:56:08.455Z,79.00
2019-03-01T05:58:41.379Z,78.52
2019-03-01T06:01:15.112Z,78.47
2019-03-01T06:04:06.927Z,79.30
2019-03-01T06:07:10.992Z,79.22
2019-03-01T06:10:44.366Z,79.69
2019-03-01T06:14:02.079Z,79.72
2019-03-01T06:16:58.631Z,79.90
2019-03-01T06:20:12.667Z,80.15
2019-03-01T06:23:39.510Z,80.28
2019-03-01T06:26:36.181Z,80.56
2019-03-01T06:29:48.382Z,80.46
2019-03-01T06:32:54.437Z,80.81
2019-03-01T06:36:01.303Z,81.52
2019-03-01T06:39:12.334Z,81.96
2019-03-01T06:42:27.304Z,82.03
2019-03-01T06:45:17.116Z,81.91
2019-03-01T06:47:46.883Z,82.95
2019-03-01T06:50:35.863Z,84.47
2019-03-01T06:53:02.632Z,84.91
2019-03-01T06:55:37.860Z,85.17
2019-03-01T06:58:06.075Z,85.25
2019-03-01T07:00:37.331Z,85.12
2019-03-01T07:03:04.123Z,84.85
2019-03-01T07:05:30.740Z,84.73
2019-03-01T07:07:57.437Z,84.87
2019-03-01T07:10:23.980Z,84.62
2019-03-01T07:12:50.638Z,84.78
2019-03-01T07:15:17.272Z,84.54
2019-03-01T07:17:43.919Z,84.10
2019-03-01T07:20:12.631Z,83.61
2019-03-01T07:22:39.265Z,83.91
2019-03-01T07:25:05.911Z,83.71
2019-03-01T07:27:32.506Z,83.26
2019-03-01T07:29:59.051Z,83.14
2019-03-01T07:32:25.860Z,82.77
2019-03-01T07:34:52.501Z,82.94
2019-03-01T07:37:19.144Z,82.92
2019-03-01T07:39:45.679Z,83.07
2019-03-01T07:42:12.233Z,82.38
2019-03-01T07:44:38.869Z,81.76
2019-03-01T07:47:05.419Z,81.69
2019-03-01T07:49:32.057Z,81.71
2019-03-01T07:52:01.736Z,81.17
2019-03-01T07:54:27.142Z,80.20
2019-03-01T07:56:53.702Z,80.56
2019-03-01T07:59:20.237Z,80.52
2019-03-01T08:01:46.895Z,80.53
2019-03-01T08:04:13.449Z,80.82
2019-03-01T08:06:40.137Z,80.22
2019-03-01T08:09:10.900Z,79.50
2019-03-01T08:11:37.442Z,79.06
2019-03-01T08:14:04.333Z,78.96
2019-03-01T08:16:30.924Z,77.41
2019-03-01T08:18:57.694Z,77.39
2019-03-01T08:21:24.449Z,75.87
2019-03-01T08:23:50.992Z,75.52
2019-03-01T08:26:17.633Z,74.16
2019-03-01T08:28:44.350Z,74.73
2019-03-01T08:31:11.078Z,74.48
2019-03-01T08:33:42.138Z,75.16
2019-03-01T08:36:07.202Z,75.57
2019-03-01T08:38:33.942Z,76.63
2019-03-01T08:41:00.510Z,76.58
2019-03-01T08:43:27.044Z,75.77
2019-03-01T08:45:53.719Z,76.68
2019-03-01T08:48:20.390Z,76.87
2019-03-01T08:50:47.091Z,76.04
2019-03-01T08:53:15.109Z,74.16
2019-03-01T08:55:42.266Z,71.65
2019-03-01T08:58:08.988Z,72.29
2019-03-01T09:00:36.520Z,72.53
2019-03-01T09:03:16.311Z,72.11
2019-03-01T09:05:42.709Z,73.34
2019-03-01T09:08:09.366Z,73.30
2019-03-01T09:10:36.007Z,74.08
2019-03-01T09:13:02.765Z,72.85
2019-03-01T09:15:29.407Z,72.80
2019-03-01T09:17:56.069Z,72.42
2019-03-01T09:20:22.750Z,72.94
2019-03-01T09:22:49.463Z,72.81
2019-03-01T09:25:16.154Z,71.88
2019-03-01T09:27:42.795Z,72.36
2019-03-01T09:30:15.526Z,71.74
2019-03-01T09:32:42.194Z,70.26
2019-03-01T09:35:23.166Z,68.78
2019-03-01T09:37:50.064Z,69.51
2019-03-01T09:40:16.760Z,68.89
2019-03-01T09:42:43.405Z,69.03
2019-03-01T09:45:10.497Z,67.88
2019-03-01T09:47:38.585Z,69.98
2019-03-01T09:50:05.799Z,69.67
2019-03-01T09:52:32.595Z,67.81
2019-03-01T09:54:59.141Z,67.36
2019-03-01T09:57:25.857Z,67.74
2019-03-01T09:59:52.388Z,68.91
2019-03-01T10:02:19.185Z,69.77
2019-03-01T10:04:45.797Z,69.70
2019-03-01T10:07:12.356Z,68.90
2019-03-01T10:09:39.014Z,70.54
2019-03-01T10:12:05.572Z,69.57
2019-03-01T10:14:32.144Z,68.45
2019-03-01T10:16:58.675Z,68.81
2019-03-01T10:19:25.393Z,66.68
2019-03-01T10:21:52.215Z,65.24
2019-03-01T10:24:18.884Z,65.54
2019-03-01T10:26:45.526Z,65.00
2019-03-01T10:29:12.213Z,64.58
2019-03-01T10:31:38.752Z,64.49
2019-03-01T10:34:05.392Z,63.91
2019-03-01T10:36:32.023Z,64.43
2019-03-01T10:38:58.937Z,65.86
2019-03-01T10:41:25.661Z,65.78
2019-03-01T10:43:52.209Z,66.52
2019-03-01T10:46:18.915Z,66.27
2019-03-01T10:48:45.451Z,66.01
2019-03-01T10:51:12.155Z,64.12
2019-03-01T10:53:38.694Z,63.85
2019-03-01T10:56:05.361Z,63.46
2019-03-01T10:58:31.912Z,64.70
2019-03-01T11:00:58.540Z,64.65
2019-03-01T11:03:25.184Z,63.78
2019-03-01T11:05:53.028Z,62.80
2019-03-01T11:08:19.827Z,62.81
2019-03-01T11:10:46.560Z,62.95
2019-03-01T11:13:13.367Z,63.68
2019-03-01T11:15:39.998Z,63.16
2019-03-01T11:18:06.648Z,63.48
2019-03-01T11:20:33.299Z,63.77
2019-03-01T11:23:00.235Z,64.04
2019-03-01T11:25:26.972Z,64.38
2019-03-01T11:27:54.115Z,64.61
2019-03-01T11:30:22.939Z,64.53
2019-03-01T11:32:49.569Z,63.54
2019-03-01T11:35:16.215Z,62.56
2019-03-01T11:37:42.795Z,63.05
2019-03-01T11:40:11.992Z,62.88
2019-03-01T11:42:38.879Z,63.28
2019-03-01T11:45:06.808Z,63.43
2019-03-01T11:47:33.357Z,64.43
2019-03-01T11:49:59.931Z,63.69
2019-03-01T11:52:26.586Z,65.14
2019-03-01T11:54:53.380Z,65.59
2019-03-01T11:57:20.065Z,65.88
2019-03-01T11:59:46.731Z,66.13
2019-03-01T12:02:13.293Z,65.58
2019-03-01T12:04:40.145Z,65.45
2019-03-01T12:07:06.784Z,65.46
2019-03-01T12:09:33.412Z,64.96
2019-03-01T12:11:59.943Z,63.74
2019-03-01T12:14:26.485Z,63.58
2019-03-01T12:16:53.114Z,63.63
2019-03-01T12:19:21.190Z,63.55
2019-03-01T12:21:48.018Z,62.60
2019-03-01T12:24:14.691Z,62.35
2019-03-01T12:26:41.350Z,62.62
2019-03-01T12:29:07.917Z,62.10
2019-03-01T12:31:34.751Z,62.17
2019-03-01T12:34:01.560Z,62.24
2019-03-01T12:36:28.185Z,62.67
2019-03-01T12:38:55.059Z,61.89
2019-03-01T12:41:21.624Z,62.03
2019-03-01T12:43:48.460Z,63.05
2019-03-01T12:46:15.115Z,64.44
2019-03-01T12:48:41.768Z,65.02
2019-03-01T12:51:08.487Z,65.85
2019-03-01T12:53:35.943Z,66.31
2019-03-01T12:56:02.600Z,67.56
2019-03-01T12:58:29.286Z,68.80
2019-03-01T13:00:56.000Z,71.04
2019-03-01T13:03:22.558Z,71.43
2019-03-01T13:05:50.021Z,72.46
2019-03-01T13:08:16.825Z,71.96
2019-03-01T13:10:43.491Z,72.65
2019-03-01T13:13:10.036Z,73.22
2019-03-01T13:15:36.696Z,73.92
2019-03-01T13:18:03.750Z,74.27
2019-03-01T13:20:30.385Z,74.97
2019-03-01T13:22:57.056Z,74.61
2019-03-01T13:25:26.013Z,74.40
2019-03-01T13:27:53.699Z,75.14
2019-03-01T13:30:20.812Z,74.32
2019-03-01T13:32:47.476Z,74.03
2019-03-01T13:35:16.150Z,72.37
2019-03-01T13:37:42.659Z,70.48
2019-03-01T13:40:10.880Z,69.20
2019-03-01T13:42:37.535Z,67.66
2019-03-01T13:45:04.552Z,67.14
2019-03-01T13:47:31.192Z,66.17
2019-03-01T13:49:57.765Z,65.99
2019-03-01T13:52:26.781Z,65.66
2019-03-01T13:54:52.827Z,66.02
2019-03-01T13:57:20.216Z,66.60
2019-03-01T13:59:46.848Z,67.32
2019-03-01T14:02:13.671Z,66.94
2019-03-01T14:04:41.367Z,67.70
2019-03-01T14:07:08.126Z,68.22
2019-03-01T14:09:34.715Z,69.08
2019-03-01T14:12:01.386Z,69.37
2019-03-01T14:14:28.376Z,69.98
2019-03-01T14:16:55.172Z,70.38
2019-03-01T14:19:21.998Z,71.31
2019-03-01T14:21:48.555Z,71.25
2019-03-01T14:24:15.192Z,71.51
2019-03-01T14:26:41.913Z,71.75
2019-03-01T14:29:08.453Z,70.75
2019-03-01T14:31:35.246Z,70.22
2019-03-01T14:34:01.812Z,69.95
2019-03-01T14:36:28.559Z,70.00
2019-03-01T14:38:55.103Z,70.20
2019-03-01T14:41:21.745Z,70.37
2019-03-01T14:43:48.643Z,70.71
2019-03-01T14:46:17.572Z,71.52
2019-03-01T14:48:46.106Z,72.73
2019-03-01T14:51:12.984Z,74.15
2019-03-01T14:53:39.581Z,74.90
2019-03-01T14:56:13.059Z,74.32
2019-03-01T14:58:55.932Z,73.75
2019-03-01T15:01:30.884Z,74.00
2019-03-01T15:03:57.436Z,74.19
2019-03-01T15:06:24.166Z,71.62
2019-03-01T15:08:50.790Z,71.23
2019-03-01T15:11:19.331Z,70.74
2019-03-01T15:13:47.337Z,70.95
2019-03-01T15:16:14.096Z,70.17
2019-03-01T15:18:41.257Z,69.21
2019-03-01T15:21:08.958Z,68.57
2019-03-01T15:23:35.649Z,67.31
2019-03-01T15:26:02.516Z,66.65
2019-03-01T15:28:29.189Z,66.57
2019-03-01T15:30:57.255Z,66.59
2019-03-01T15:33:24.187Z,66.38
2019-03-01T15:35:50.909Z,65.80
2019-03-01T15:38:17.678Z,66.17
2019-03-01T15:40:44.361Z,66.37
2019-03-01T15:43:11.004Z,66.92
2019-03-01T15:45:40.019Z,66.97
2019-03-01T15:48:06.455Z,66.76
2019-03-01T15:50:33.199Z,67.40
2019-03-01T15:52:59.754Z,67.45
2019-03-01T15:55:26.371Z,68.29
2019-03-01T15:57:56.336Z,67.38
2019-03-01T16:00:21.822Z,67.59
2019-03-01T16:02:50.053Z,67.36
2019-03-01T16:05:17.081Z,67.12
2019-03-01T16:07:43.699Z,67.34
2019-03-01T16:10:10.408Z,67.85
2019-03-01T16:12:37.042Z,68.01
2019-03-01T16:15:05.102Z,67.91
2019-03-01T16:17:31.826Z,68.32
2019-03-01T16:19:58.356Z,69.28
2019-03-01T16:22:24.888Z,69.63
2019-03-01T16:24:51.426Z,69.40
2019-03-01T16:27:18.074Z,69.45
2019-03-01T16:29:44.628Z,69.66
2019-03-01T16:32:11.243Z,69.73
2019-03-01T16:34:41.255Z,69.69
2019-03-01T16:37:06.236Z,69.68
2019-03-01T16:39:32.927Z,70.12
2019-03-01T16:41:59.446Z,70.12
2019-03-01T16:44:26.139Z,70.10
2019-03-01T16:46:52.961Z,70.13
2019-03-01T16:49:19.723Z,70.94
2019-03-01T16:51:46.388Z,70.97
2019-03-01T16:54:16.374Z,70.99
2019-03-01T16:56:41.706Z,71.22
2019-03-01T16:59:08.506Z,70.94
2019-03-01T17:01:35.288Z,71.40
2019-03-01T17:04:01.931Z,71.25
2019-03-01T17:06:28.483Z,71.91
2019-03-01T17:08:55.138Z,71.84
2019-03-01T17:11:21.777Z,71.69
2019-03-01T17:13:48.452Z,71.58
2019-03-01T17:16:15.007Z,71.68
2019-03-01T17:18:44.671Z,72.76
2019-03-01T17:21:12.516Z,72.38
2019-03-01T17:23:39.408Z,72.24
2019-03-01T17:26:06.977Z,72.51
2019-03-01T17:28:33.655Z,72.79
2019-03-01T17:31:00.297Z,73.42
2019-03-01T17:33:26.973Z,73.25
2019-03-01T17:35:53.531Z,74.38
2019-03-01T17:38:22.140Z,75.06
2019-03-01T17:40:48.797Z,75.69
2019-03-01T17:43:15.359Z,75.38
2019-03-01T17:45:41.940Z,75.62
2019-03-01T17:48:08.516Z,75.46
2019-03-01T17:50:35.281Z,75.60
2019-03-01T17:53:06.215Z,75.65
2019-03-01T17:55:34.459Z,75.31
2019-03-01T17:58:01.238Z,76.09
2019-03-01T18:00:33.645Z,75.69
2019-03-01T18:03:00.476Z,75.73
2019-03-01T18:05:27.138Z,75.78
2019-03-01T18:07:53.786Z,76.10
2019-03-01T18:10:20.501Z,76.26
2019-03-01T18:12:47.036Z,76.50
2019-03-01T18:15:13.735Z,76.54
2019-03-01T18:17:40.397Z,76.71
2019-03-01T18:20:07.466Z,77.10
2019-03-01T18:22:34.099Z,77.24
2019-03-01T18:25:00.776Z,77.29
2019-03-01T18:27:27.424Z,76.79
2019-03-01T18:29:54.219Z,77.43
2019-03-01T18:32:20.936Z,77.58
2019-03-01T18:34:47.611Z,77.22
2019-03-01T18:37:19.397Z,77.83
2019-03-01T18:39:42.903Z,77.69
2019-03-01T18:42:09.542Z,77.71
2019-03-01T18:44:36.245Z,77.49
2019-03-01T18:47:02.998Z,77.83
2019-03-01T18:49:29.679Z,77.77
2019-03-01T18:51:56.312Z,78.05
2019-03-01T18:54:23.156Z,77.81
2019-03-01T18:56:49.808Z,78.21
2019-03-01T18:59:16.352Z,78.42
2019-03-01T19:01:46.380Z,78.64
2019-03-01T19:04:13.006Z,78.66
2019-03-01T19:06:39.801Z,78.54
2019-03-01T19:09:07.035Z,78.53
2019-03-01T19:11:34.674Z,78.94
2019-03-01T19:14:02.676Z,79.25
2019-03-01T19:16:29.474Z,79.05
2019-03-01T19:18:56.041Z,78.98
2019-03-01T19:21:22.589Z,78.94
2019-03-01T19:23:49.129Z,79.08
2019-03-01T19:26:15.776Z,79.07
2019-03-01T19:28:44.876Z,79.25
2019-03-01T19:31:11.548Z,79.40
2019-03-01T19:33:41.439Z,79.37
2019-03-01T19:36:06.748Z,79.35
2019-03-01T19:38:33.606Z,79.69
2019-03-01T19:41:00.244Z,79.25
2019-03-01T19:43:26.870Z,79.26
2019-03-01T19:45:53.546Z,79.14
2019-03-01T19:48:20.311Z,78.93
2019-03-01T19:50:46.958Z,78.85
2019-03-01T19:53:13.699Z,78.65
2019-03-01T19:55:40.340Z,78.37
2019-03-01T19:58:08.684Z,78.19
2019-03-01T20:00:35.580Z,78.53
2019-03-01T20:03:02.136Z,78.44
2019-03-01T20:05:31.654Z,78.39
2019-03-01T20:07:57.534Z,78.19
2019-03-01T20:10:24.163Z,78.43
2019-03-01T20:12:50.949Z,78.59
2019-03-01T20:15:20.620Z,78.34
2019-03-01T20:17:47.550Z,78.28
2019-03-01T20:20:15.395Z,78.37
2019-03-01T20:22:42.178Z,78.53
2019-03-01T20:25:12.813Z,78.46
2019-03-01T20:27:39.077Z,78.30
2019-03-01T20:30:10.363Z,78.06
2019-03-01T20:32:37.188Z,77.94
2019-03-01T20:35:05.308Z,77.96
2019-03-01T20:37:32.209Z,78.05
2019-03-01T20:39:59.029Z,78.27
2019-03-01T20:42:25.657Z,78.05
2019-03-01T20:44:53.093Z,78.05
2019-03-01T20:47:20.511Z,78.03
2019-03-01T20:49:47.342Z,78.18
2019-03-01T20:52:14.493Z,77.97
2019-03-01T20:54:41.169Z,78.43
2019-03-01T20:57:07.816Z,78.20
2019-03-01T20:59:34.353Z,77.87
2019-03-01T21:02:01.646Z,77.69
2019-03-01T21:04:28.434Z,78.00
2019-03-01T21:06:54.976Z,78.27
2019-03-01T21:09:21.798Z,78.13
2019-03-01T21:11:48.530Z,78.15
2019-03-01T21:14:15.225Z,78.19
2019-03-01T21:16:44.790Z,78.02
2019-03-01T21:19:10.578Z,78.00
2019-03-01T21:21:39.678Z,78.23
2019-03-01T21:24:06.398Z,78.40
2019-03-01T21:26:35.002Z,78.52
2019-03-01T21:29:08.938Z,78.90
2019-03-01T21:31:36.891Z,80.32
2019-03-01T21:34:03.777Z,82.02
2019-03-01T21:36:30.725Z,83.49
2019-03-01T21:38:57.411Z,84.75
2019-03-01T21:41:24.185Z,85.14
2019-03-01T21:43:50.978Z,85.07
2019-03-01T21:46:17.752Z,85.70
2019-03-01T21:48:44.498Z,86.05
2019-03-01T21:51:11.306Z,86.61
2019-03-01T21:53:39.775Z,86.93
2019-03-01T21:56:08.607Z,87.03
2019-03-01T21:58:38.530Z,87.20
2019-03-01T22:01:05.871Z,86.81
2019-03-01T22:03:32.389Z,86.61
2019-03-01T22:05:58.965Z,86.56
2019-03-01T22:08:25.647Z,86.88
2019-03-01T22:10:52.296Z,87.27
2019-03-01T22:13:19.019Z,87.73
2019-03-01T22:15:46.706Z,87.41
2019-03-01T22:18:13.448Z,87.57
2019-03-01T22:20:41.528Z,87.68
2019-03-01T22:23:13.461Z,87.98
2019-03-01T22:25:39.070Z,88.09
2019-03-01T22:28:06.024Z,88.19
2019-03-01T22:30:32.762Z,88.62
2019-03-01T22:32:59.454Z,88.94
2019-03-01T22:35:26.214Z,89.20
2019-03-01T22:37:53.045Z,89.66
2019-03-01T22:40:19.805Z,89.86
2019-03-01T22:42:49.706Z,89.83
2019-03-01T22:45:16.207Z,89.86
2019-03-01T22:47:48.749Z,90.09
2019-03-01T22:50:15.641Z,90.04
2019-03-01T22:52:42.404Z,90.09
2019-03-01T22:55:10.254Z,90.19
2019-03-01T22:57:37.016Z,90.11
2019-03-01T23:00:06.972Z,89.99
2019-03-01T23:02:33.630Z,90.09
2019-03-01T23:05:00.449Z,89.81
2019-03-01T23:07:28.853Z,89.82
2019-03-01T23:09:55.545Z,90.09
2019-03-01T23:12:23.258Z,90.17
2019-03-01T23:14:49.964Z,90.18
2019-03-01T23:17:16.614Z,90.07
2019-03-01T23:19:43.275Z,90.08
2019-03-01T23:22:10.998Z,89.98
2019-03-01T23:24:38.550Z,90.06
2019-03-01T23:27:05.234Z,90.25
2019-03-01T23:29:33.014Z,90.30
2019-03-01T23:32:00.734Z,90.21
2019-03-01T23:34:27.274Z,90.14
2019-03-01T23:36:53.836Z,90.35
2019-03-01T23:39:21.679Z,90.29
2019-03-01T23:41:49.445Z,90.31
2019-03-01T23:44:16.004Z,90.21
2019-03-01T23:46:42.745Z,90.33
2019-03-01T23:49:09.681Z,90.43
2019-03-01T23:51:36.327Z,90.61
2019-03-01T23:54:05.741Z,90.55
2019-03-01T23:56:31.921Z,90.56
2019-03-01T23:58:58.472Z,90.36
